createdAt,value
2019-02-05T00:00:42.154Z,15.63
2019-02-05T00:03:12.789Z,15.53
2019-02-05T00:05:41.635Z,15.70
2019-02-05T00:08:10.512Z,15.37
2019-02-05T00:10:39.387Z,16.90
2019-02-05T00:13:08.217Z,14.83
2019-02-05T00:15:37.089Z,18.37
2019-02-05T00:18:05.960Z,14.57
2019-02-05T00:20:34.795Z,15.57
2019-02-05T00:23:03.679Z,14.37
2019-02-05T00:25:32.547Z,14.57
2019-02-05T00:28:01.382Z,15.53
2019-02-05T00:30:30.559Z,17.30
2019-02-05T00:32:59.426Z,16.17
2019-02-05T00:35:28.266Z,16.90
2019-02-05T00:37:57.136Z,13.87
2019-02-05T00:40:26.016Z,13.77
2019-02-05T00:42:54.846Z,15.27
2019-02-05T00:45:24.114Z,16.40
2019-02-05T00:47:52.992Z,15.33
2019-02-05T00:50:21.819Z,16.93
2019-02-05T00:52:50.695Z,15.77
2019-02-05T00:55:20.263Z,17.43
2019-02-05T00:57:49.095Z,14.93
2019-02-05T01:00:27.530Z,15.67
2019-02-05T01:02:56.799Z,16.90
2019-02-05T01:05:26.032Z,15.73
2019-02-05T01:07:54.905Z,17.73
2019-02-05T01:10:25.174Z,16.70
2019-02-05T01:12:55.544Z,16.40
2019-02-05T01:15:25.916Z,17.43
2019-02-05T01:17:54.885Z,17.43
2019-02-05T01:20:25.616Z,15.63
2019-02-05T01:22:54.496Z,16.17
2019-02-05T01:25:23.668Z,17.37
2019-02-05T01:27:52.894Z,14.90
2019-02-05T01:30:24.074Z,17.57
2019-02-05T01:32:53.147Z,16.77
2019-02-05T01:35:22.479Z,16.07
2019-02-05T01:37:51.566Z,14.83
2019-02-05T01:40:22.427Z,16.80
2019-02-05T01:42:51.260Z,15.33
2019-02-05T01:45:21.644Z,15.70
2019-02-05T01:47:50.714Z,17.73
2019-02-05T01:50:24.567Z,18.60
2019-02-05T01:52:53.404Z,17.33
2019-02-05T01:55:22.542Z,16.33
2019-02-05T01:57:51.507Z,17.07
2019-02-05T02:00:30.805Z,17.37
2019-02-05T02:02:59.854Z,16.03
2019-02-05T02:05:28.922Z,16.53
2019-02-05T02:07:58.151Z,20.43
2019-02-05T02:10:28.918Z,16.27
2019-02-05T02:12:58.191Z,17.73
2019-02-05T02:15:27.022Z,15.47
2019-02-05T02:17:56.197Z,16.20
2019-02-05T02:20:25.266Z,17.47
2019-02-05T02:22:54.503Z,16.47
2019-02-05T02:25:23.370Z,17.83
2019-02-05T02:27:52.639Z,17.57
2019-02-05T02:30:27.657Z,17.70
2019-02-05T02:32:56.527Z,16.53
2019-02-05T02:35:25.376Z,18.53
2019-02-05T02:37:54.646Z,15.80
2019-02-05T02:40:23.709Z,17.87
2019-02-05T02:42:52.547Z,18.50
2019-02-05T02:45:21.431Z,17.10
2019-02-05T02:47:50.304Z,17.77
2019-02-05T02:50:20.640Z,16.40
2019-02-05T02:52:49.910Z,18.90
2019-02-05T02:55:18.986Z,17.47
2019-02-05T02:57:47.832Z,17.37
2019-02-05T03:00:18.598Z,17.83
2019-02-05T03:02:47.590Z,17.70
2019-02-05T03:05:18.326Z,20.53
2019-02-05T03:07:47.611Z,16.83
2019-02-05T03:10:24.791Z,16.00
2019-02-05T03:12:54.262Z,17.70
2019-02-05T03:15:23.242Z,15.90
2019-02-05T03:17:52.073Z,18.93
2019-02-05T03:20:20.944Z,18.70
2019-02-05T03:22:50.215Z,18.37
2019-02-05T03:25:24.310Z,18.33
2019-02-05T03:27:54.228Z,18.03
2019-02-05T03:30:25.280Z,18.47
2019-02-05T03:32:56.453Z,21.47
2019-02-05T03:35:25.448Z,18.73
2019-02-05T03:37:54.379Z,19.40
2019-02-05T03:40:29.252Z,19.07
2019-02-05T03:42:58.222Z,21.60
2019-02-05T03:45:29.559Z,20.03
2019-02-05T03:48:03.892Z,18.27
2019-02-05T03:50:35.692Z,21.33
2019-02-05T03:53:19.717Z,19.70
2019-02-05T03:56:12.789Z,19.57
2019-02-05T03:58:56.440Z,21.23
2019-02-05T04:01:52.549Z,20.07
2019-02-05T04:04:43.878Z,21.03
2019-02-05T04:07:27.760Z,20.37
2019-02-05T04:10:11.356Z,19.27
2019-02-05T04:12:59.983Z,19.53
2019-02-05T04:15:43.728Z,22.53
2019-02-05T04:18:33.651Z,22.60
2019-02-05T04:21:08.647Z,18.30
2019-02-05T04:23:43.007Z,21.27
2019-02-05T04:26:26.698Z,21.80
2019-02-05T04:29:27.500Z,22.77
2019-02-05T04:32:08.119Z,20.90
2019-02-05T04:34:56.676Z,18.47
2019-02-05T04:37:34.331Z,20.73
2019-02-05T04:40:21.424Z,21.33
2019-02-05T04:42:55.837Z,22.90
2019-02-05T04:45:39.451Z,18.70
2019-02-05T04:48:33.788Z,21.57
2019-02-05T04:51:11.651Z,24.53
2019-02-05T04:53:43.992Z,20.47
2019-02-05T04:56:15.821Z,25.70
2019-02-05T04:58:59.708Z,22.03
2019-02-05T05:01:31.527Z,21.93
2019-02-05T05:04:19.847Z,24.47
2019-02-05T05:07:03.716Z,23.90
2019-02-05T05:09:38.211Z,23.70
2019-02-05T05:12:07.094Z,23.00
2019-02-05T05:14:35.926Z,23.50
2019-02-05T05:17:05.139Z,21.17
2019-02-05T05:19:34.584Z,23.27
2019-02-05T05:22:04.046Z,20.50
2019-02-05T05:24:32.915Z,24.33
2019-02-05T05:27:02.091Z,22.77
2019-02-05T05:29:33.178Z,24.73
2019-02-05T05:32:01.769Z,22.50
2019-02-05T05:34:30.616Z,22.83
2019-02-05T05:36:58.235Z,24.53
2019-02-05T05:39:27.107Z,22.90
2019-02-05T05:41:55.983Z,23.90
2019-02-05T05:44:24.875Z,26.57
2019-02-05T05:46:53.730Z,25.33
2019-02-05T05:49:22.909Z,24.30
2019-02-05T05:51:51.742Z,22.37
2019-02-05T05:54:20.678Z,23.70
2019-02-05T05:56:49.551Z,25.30
2019-02-05T05:59:18.387Z,22.13
2019-02-05T06:01:47.267Z,25.27
2019-02-05T06:04:16.148Z,25.23
2019-02-05T06:06:45.285Z,24.60
2019-02-05T06:09:14.167Z,24.30
2019-02-05T06:11:43.052Z,24.37
2019-02-05T06:14:11.891Z,28.57
2019-02-05T06:16:40.778Z,23.67
2019-02-05T06:19:09.656Z,23.40
2019-02-05T06:21:38.501Z,26.03
2019-02-05T06:24:07.379Z,24.43
2019-02-05T06:26:36.259Z,26.83
2019-02-05T06:29:05.104Z,24.50
2019-02-05T06:31:33.987Z,25.37
2019-02-05T06:34:02.863Z,26.20
2019-02-05T06:36:31.706Z,24.57
2019-02-05T06:39:00.987Z,26.07
2019-02-05T06:41:29.876Z,23.80
2019-02-05T06:43:58.708Z,25.50
2019-02-05T06:46:27.608Z,26.57
2019-02-05T06:48:56.497Z,25.77
2019-02-05T06:51:25.358Z,23.80
2019-02-05T06:53:54.236Z,24.03
2019-02-05T06:56:23.436Z,27.07
2019-02-05T06:58:52.284Z,25.07
2019-02-05T07:01:21.180Z,28.03
2019-02-05T07:03:50.068Z,29.67
2019-02-05T07:06:18.921Z,27.67
2019-02-05T07:08:47.824Z,24.73
2019-02-05T07:11:16.717Z,26.27
2019-02-05T07:13:45.559Z,24.97
2019-02-05T07:16:14.443Z,25.70
2019-02-05T07:18:43.332Z,24.43
2019-02-05T07:21:12.196Z,25.47
2019-02-05T07:23:41.081Z,22.20
2019-02-05T07:26:09.972Z,24.43
2019-02-05T07:28:39.119Z,22.53
2019-02-05T07:31:08.109Z,23.53
2019-02-05T07:33:37.006Z,23.77
2019-02-05T07:36:05.964Z,24.90
2019-02-05T07:38:34.849Z,24.23
2019-02-05T07:41:03.831Z,24.50
2019-02-05T07:43:32.683Z,24.17
2019-02-05T07:46:01.571Z,24.53
2019-02-05T07:48:30.791Z,23.90
2019-02-05T07:50:59.700Z,24.87
2019-02-05T07:53:28.592Z,24.03
2019-02-05T07:55:57.468Z,23.97
2019-02-05T07:58:26.311Z,24.27
2019-02-05T08:00:55.291Z,23.10
2019-02-05T08:03:24.183Z,21.70
2019-02-05T08:05:53.332Z,21.60
2019-02-05T08:08:22.231Z,21.40
2019-02-05T08:10:51.194Z,22.30
2019-02-05T08:13:20.076Z,23.90
2019-02-05T08:15:48.960Z,23.33
2019-02-05T08:18:17.851Z,23.50
2019-02-05T08:20:46.698Z,20.47
2019-02-05T08:23:15.582Z,20.20
2019-02-05T08:25:44.863Z,18.97
2019-02-05T08:28:13.712Z,23.07
2019-02-05T08:30:45.403Z,20.83
2019-02-05T08:33:14.294Z,20.80
2019-02-05T08:35:43.240Z,19.63
2019-02-05T08:38:12.224Z,21.50
2019-02-05T08:40:41.108Z,20.70
2019-02-05T08:43:09.962Z,23.23
2019-02-05T08:45:39.842Z,21.50
2019-02-05T08:48:11.138Z,21.43
2019-02-05T08:50:39.967Z,22.37
2019-02-05T08:53:08.869Z,20.30
2019-02-05T08:55:37.749Z,21.23
2019-02-05T08:58:12.176Z,21.63
2019-02-05T09:00:42.465Z,20.30
2019-02-05T09:03:12.112Z,22.90
2019-02-05T09:05:41.293Z,21.23
2019-02-05T09:08:10.380Z,20.10
2019-02-05T09:10:41.524Z,19.40
2019-02-05T09:13:10.708Z,19.83
2019-02-05T09:15:39.598Z,20.43
2019-02-05T09:18:08.561Z,21.17
2019-02-05T09:20:37.540Z,22.70
2019-02-05T09:23:06.838Z,20.20
2019-02-05T09:25:35.685Z,19.47
2019-02-05T09:28:04.864Z,20.30
2019-02-05T09:30:35.961Z,19.67
2019-02-05T09:33:10.784Z,18.37
2019-02-05T09:35:39.668Z,20.30
2019-02-05T09:38:08.632Z,20.20
2019-02-05T09:40:37.516Z,21.67
2019-02-05T09:43:06.403Z,22.80
2019-02-05T09:45:35.667Z,19.63
2019-02-05T09:48:04.751Z,21.77
2019-02-05T09:50:44.159Z,20.20
2019-02-05T09:53:04.258Z,22.77
2019-02-05T09:55:35.963Z,20.17
2019-02-05T09:58:03.672Z,21.87
2019-02-05T10:00:35.216Z,19.40
2019-02-05T10:03:04.829Z,19.70
2019-02-05T10:05:35.381Z,20.77
2019-02-05T10:08:04.622Z,17.57
2019-02-05T10:10:33.524Z,20.03
2019-02-05T10:13:02.400Z,20.17
2019-02-05T10:15:43.700Z,20.47
2019-02-05T10:18:13.672Z,20.10
2019-02-05T10:20:42.529Z,18.57
2019-02-05T10:23:11.403Z,18.93
2019-02-05T10:25:40.389Z,17.93
2019-02-05T10:28:09.340Z,19.27
2019-02-05T10:30:43.593Z,19.27
2019-02-05T10:33:12.480Z,18.20
2019-02-05T10:35:41.325Z,19.20
2019-02-05T10:38:10.307Z,20.07
2019-02-05T10:40:39.179Z,19.40
2019-02-05T10:43:08.013Z,18.33
2019-02-05T10:45:37.179Z,17.23
2019-02-05T10:48:07.346Z,17.90
2019-02-05T10:50:36.213Z,18.37
2019-02-05T10:53:05.354Z,20.27
2019-02-05T10:55:34.313Z,18.07
2019-02-05T10:58:03.143Z,17.43
2019-02-05T11:00:32.910Z,19.30
2019-02-05T11:03:09.343Z,19.37
2019-02-05T11:05:38.418Z,20.60
2019-02-05T11:08:07.394Z,16.90
2019-02-05T11:10:36.219Z,19.97
2019-02-05T11:13:05.800Z,17.63
2019-02-05T11:15:34.863Z,17.90
2019-02-05T11:18:06.598Z,19.00
2019-02-05T11:20:35.458Z,20.37
2019-02-05T11:23:04.886Z,19.17
2019-02-05T11:25:33.750Z,19.70
2019-02-05T11:28:02.587Z,19.80
2019-02-05T11:30:36.591Z,17.90
2019-02-05T11:33:05.566Z,18.70
2019-02-05T11:35:34.699Z,18.97
2019-02-05T11:38:03.563Z,19.23
2019-02-05T11:40:34.444Z,19.67
2019-02-05T11:43:03.278Z,18.73
2019-02-05T11:45:32.539Z,18.97
2019-02-05T11:48:03.011Z,18.93
2019-02-05T11:50:32.138Z,19.30
2019-02-05T11:53:01.006Z,20.40
2019-02-05T11:55:32.543Z,19.30
2019-02-05T11:58:01.385Z,18.80
2019-02-05T12:00:40.878Z,17.27
2019-02-05T12:03:10.843Z,18.10
2019-02-05T12:05:40.085Z,17.73
2019-02-05T12:08:09.151Z,24.80
2019-02-05T12:10:38.029Z,19.03
2019-02-05T12:13:06.850Z,18.17
2019-02-05T12:15:35.735Z,19.67
2019-02-05T12:18:04.799Z,18.73
2019-02-05T12:20:33.645Z,18.33
2019-02-05T12:23:02.811Z,19.67
2019-02-05T12:25:31.679Z,17.87
2019-02-05T12:28:00.511Z,18.30
2019-02-05T12:30:44.902Z,22.03
2019-02-05T12:33:11.754Z,19.00
2019-02-05T12:35:40.578Z,18.17
2019-02-05T12:38:10.047Z,19.80
2019-02-05T12:40:38.914Z,20.13
2019-02-05T12:43:07.853Z,18.80
2019-02-05T12:45:38.418Z,16.70
2019-02-05T12:48:07.655Z,17.10
2019-02-05T12:50:38.789Z,18.13
2019-02-05T12:53:07.923Z,20.43
2019-02-05T12:55:36.851Z,16.87
2019-02-05T12:58:06.422Z,23.93
2019-02-05T13:00:56.854Z,19.33
2019-02-05T13:03:17.258Z,18.93
2019-02-05T13:05:46.428Z,19.40
2019-02-05T13:08:15.252Z,19.77
2019-02-05T13:10:49.782Z,18.27
2019-02-05T13:13:18.751Z,17.73
2019-02-05T13:15:47.987Z,18.90
2019-02-05T13:18:16.850Z,18.73
2019-02-05T13:20:45.723Z,18.43
2019-02-05T13:23:14.554Z,18.80
2019-02-05T13:25:43.427Z,19.33
2019-02-05T13:28:12.506Z,18.90
2019-02-05T13:30:41.339Z,17.63
2019-02-05T13:33:11.506Z,20.33
2019-02-05T13:35:40.571Z,18.53
2019-02-05T13:38:09.410Z,20.30
2019-02-05T13:40:38.381Z,17.20
2019-02-05T13:43:07.823Z,17.40
2019-02-05T13:45:39.619Z,16.67
2019-02-05T13:48:09.294Z,18.30
2019-02-05T13:50:38.363Z,18.60
2019-02-05T13:53:07.503Z,18.07
2019-02-05T13:55:41.680Z,19.73
2019-02-05T13:58:11.454Z,17.13
2019-02-05T14:00:48.720Z,17.50
2019-02-05T14:03:17.591Z,17.20
2019-02-05T14:05:46.822Z,18.00
2019-02-05T14:08:15.796Z,18.07
2019-02-05T14:10:46.458Z,19.00
2019-02-05T14:13:15.399Z,18.10
2019-02-05T14:15:46.668Z,18.40
2019-02-05T14:18:15.545Z,18.73
2019-02-05T14:20:44.375Z,18.33
2019-02-05T14:23:13.243Z,17.10
2019-02-05T14:25:42.110Z,18.57
2019-02-05T14:28:10.930Z,16.30
2019-02-05T14:30:42.368Z,17.93
2019-02-05T14:33:11.335Z,17.50
2019-02-05T14:35:40.170Z,17.13
2019-02-05T14:38:09.451Z,17.83
2019-02-05T14:40:38.327Z,18.50
2019-02-05T14:43:07.859Z,18.43
2019-02-05T14:45:37.332Z,17.53
2019-02-05T14:48:07.001Z,18.80
2019-02-05T14:50:48.414Z,18.93
2019-02-05T14:53:17.289Z,18.40
2019-02-05T14:55:46.118Z,18.20
2019-02-05T14:58:15.074Z,17.53
2019-02-05T15:00:43.948Z,16.80
2019-02-05T15:03:14.181Z,17.80
2019-02-05T15:05:43.755Z,17.80
2019-02-05T15:08:13.531Z,16.03
2019-02-05T15:10:42.366Z,16.97
2019-02-05T15:13:11.335Z,17.63
2019-02-05T15:15:40.302Z,18.97
2019-02-05T15:18:10.046Z,17.50
2019-02-05T15:20:41.586Z,17.17
2019-02-05T15:23:10.647Z,17.00
2019-02-05T15:25:39.682Z,17.53
2019-02-05T15:28:08.955Z,17.67
2019-02-05T15:30:42.800Z,18.10
2019-02-05T15:33:18.421Z,18.87
2019-02-05T15:35:48.858Z,18.77
2019-02-05T15:38:17.687Z,17.33
2019-02-05T15:40:46.955Z,17.53
2019-02-05T15:43:15.814Z,18.20
2019-02-05T15:45:44.642Z,17.33
2019-02-05T15:48:13.510Z,18.77
2019-02-05T15:50:42.386Z,18.00
2019-02-05T15:53:11.226Z,21.00
2019-02-05T15:55:40.786Z,19.20
2019-02-05T15:58:09.655Z,18.30
2019-02-05T16:00:38.994Z,17.43
2019-02-05T16:03:08.639Z,20.87
2019-02-05T16:05:37.830Z,18.67
2019-02-05T16:08:06.756Z,20.03
2019-02-05T16:10:35.724Z,19.43
2019-02-05T16:13:04.998Z,20.33
2019-02-05T16:15:33.822Z,20.20
2019-02-05T16:18:02.687Z,18.47
2019-02-05T16:20:31.563Z,19.70
2019-02-05T16:23:00.383Z,19.30
2019-02-05T16:25:29.256Z,22.20
2019-02-05T16:27:58.427Z,20.43
2019-02-05T16:30:31.425Z,20.10
2019-02-05T16:33:00.298Z,19.97
2019-02-05T16:35:29.131Z,22.00
2019-02-05T16:37:57.971Z,19.43
2019-02-05T16:40:35.360Z,22.30
2019-02-05T16:43:04.731Z,20.47
2019-02-05T16:45:33.663Z,19.67
2019-02-05T16:48:02.526Z,23.07
2019-02-05T16:50:42.715Z,20.37
2019-02-05T16:53:12.487Z,22.27
2019-02-05T16:55:41.358Z,20.80
2019-02-05T16:58:10.180Z,20.97
2019-02-05T17:00:40.355Z,20.20
2019-02-05T17:03:09.832Z,19.67
2019-02-05T17:05:41.138Z,20.63
2019-02-05T17:08:13.565Z,20.47
2019-02-05T17:10:42.575Z,21.77
2019-02-05T17:13:11.998Z,21.27
2019-02-05T17:15:41.126Z,23.50
2019-02-05T17:18:10.099Z,21.60
2019-02-05T17:20:45.070Z,22.83
2019-02-05T17:23:13.944Z,22.17
2019-02-05T17:25:42.769Z,22.53
2019-02-05T17:28:11.934Z,24.77
2019-02-05T17:30:41.607Z,21.30
2019-02-05T17:33:10.466Z,21.43
2019-02-05T17:35:39.343Z,23.70
2019-02-05T17:38:09.216Z,22.17
2019-02-05T17:40:38.155Z,23.23
2019-02-05T17:43:07.214Z,24.43
2019-02-05T17:45:38.307Z,24.80
2019-02-05T17:48:10.247Z,26.47
2019-02-05T17:50:39.110Z,24.37
2019-02-05T17:53:07.949Z,22.17
2019-02-05T17:55:36.823Z,25.53
2019-02-05T17:58:05.984Z,23.70
2019-02-05T18:00:51.989Z,21.27
2019-02-05T18:03:21.355Z,21.77
2019-02-05T18:05:50.186Z,23.20
2019-02-05T18:08:19.054Z,26.97
2019-02-05T18:10:47.927Z,26.50
2019-02-05T18:13:16.764Z,24.83
2019-02-05T18:15:45.634Z,25.30
2019-02-05T18:18:15.020Z,25.83
2019-02-05T18:20:44.046Z,23.43
2019-02-05T18:23:12.916Z,26.13
2019-02-05T18:25:41.891Z,24.23
2019-02-05T18:28:10.706Z,25.07
2019-02-05T18:30:39.879Z,23.87
2019-02-05T18:33:08.851Z,24.10
2019-02-05T18:35:37.728Z,26.27
2019-02-05T18:38:10.067Z,23.20
2019-02-05T18:40:38.936Z,22.10
2019-02-05T18:43:07.865Z,23.20
2019-02-05T18:45:36.740Z,24.60
2019-02-05T18:48:05.823Z,23.90
2019-02-05T18:50:34.862Z,24.13
2019-02-05T18:53:03.823Z,26.33
2019-02-05T18:55:38.204Z,23.43
2019-02-05T18:58:09.994Z,24.87
2019-02-05T19:00:41.252Z,24.67
2019-02-05T19:03:15.548Z,27.00
2019-02-05T19:05:40.695Z,25.27
2019-02-05T19:08:10.205Z,25.97
2019-02-05T19:10:39.446Z,23.40
2019-02-05T19:13:08.597Z,25.47
2019-02-05T19:15:39.698Z,23.73
2019-02-05T19:18:09.960Z,25.37
2019-02-05T19:20:38.901Z,25.37
2019-02-05T19:23:09.866Z,23.90
2019-02-05T19:25:52.913Z,28.07
2019-02-05T19:28:24.005Z,26.70
2019-02-05T19:30:54.674Z,25.60
2019-02-05T19:33:27.128Z,26.83
2019-02-05T19:35:56.850Z,29.57
2019-02-05T19:38:26.067Z,28.10
2019-02-05T19:40:57.659Z,29.60
2019-02-05T19:43:25.768Z,28.23
2019-02-05T19:46:02.461Z,27.23
2019-02-05T19:48:39.182Z,27.63
2019-02-05T19:51:08.149Z,28.40
2019-02-05T19:53:37.081Z,25.10
2019-02-05T19:56:06.283Z,28.00
2019-02-05T19:58:36.070Z,29.17
2019-02-05T20:01:05.866Z,27.90
2019-02-05T20:03:38.672Z,28.43
2019-02-05T20:06:05.510Z,29.00
2019-02-05T20:08:34.413Z,27.93
2019-02-05T20:11:03.398Z,29.17
2019-02-05T20:13:39.922Z,30.43
2019-02-05T20:16:02.834Z,26.67
2019-02-05T20:18:31.786Z,32.30
2019-02-05T20:21:00.774Z,28.57
2019-02-05T20:23:29.709Z,28.07
2019-02-05T20:25:58.682Z,28.20
2019-02-05T20:28:27.541Z,32.27
2019-02-05T20:30:56.775Z,29.40
2019-02-05T20:33:25.839Z,29.90
2019-02-05T20:35:54.909Z,32.97
2019-02-05T20:38:24.709Z,30.27
2019-02-05T20:40:55.155Z,31.13
2019-02-05T20:43:24.132Z,29.63
2019-02-05T20:45:52.987Z,33.53
2019-02-05T20:48:21.952Z,31.83
2019-02-05T20:50:50.782Z,37.17
2019-02-05T20:53:19.668Z,33.03
2019-02-05T20:55:48.498Z,34.07
2019-02-05T20:58:17.382Z,35.50
2019-02-05T21:00:46.254Z,33.83
2019-02-05T21:03:15.095Z,33.93
2019-02-05T21:05:43.962Z,31.53
2019-02-05T21:08:12.799Z,33.20
2019-02-05T21:10:41.668Z,31.60
2019-02-05T21:13:10.508Z,32.50
2019-02-05T21:15:39.374Z,29.70
2019-02-05T21:18:08.247Z,29.93
2019-02-05T21:20:37.083Z,32.60
2019-02-05T21:23:06.262Z,31.63
2019-02-05T21:25:35.167Z,31.57
2019-02-05T21:28:04.603Z,31.43
2019-02-05T21:30:33.477Z,30.60
2019-02-05T21:33:02.347Z,34.60
2019-02-05T21:35:31.183Z,31.23
2019-02-05T21:38:00.373Z,35.23
2019-02-05T21:40:31.500Z,32.13
2019-02-05T21:42:59.717Z,31.40
2019-02-05T21:45:30.769Z,29.17
2019-02-05T21:47:59.667Z,31.70
2019-02-05T21:50:28.755Z,31.23
2019-02-05T21:52:57.941Z,31.83
2019-02-05T21:55:27.390Z,29.13
2019-02-05T21:57:56.520Z,30.90
2019-02-05T22:00:33.621Z,32.63
2019-02-05T22:03:02.660Z,29.63
2019-02-05T22:05:32.876Z,29.40
2019-02-05T22:08:02.398Z,30.30
2019-02-05T22:10:31.343Z,32.00
2019-02-05T22:13:00.346Z,36.00
2019-02-05T22:15:29.619Z,30.63
2019-02-05T22:17:58.449Z,29.93
2019-02-05T22:20:28.730Z,30.47
2019-02-05T22:22:57.604Z,29.93
2019-02-05T22:25:29.203Z,33.30
2019-02-05T22:27:58.084Z,31.97
2019-02-05T22:30:32.439Z,29.87
2019-02-05T22:33:01.679Z,30.37
2019-02-05T22:35:30.550Z,30.13
2019-02-05T22:38:00.513Z,30.43
2019-02-05T22:40:30.196Z,32.50
2019-02-05T22:42:59.060Z,31.13
2019-02-05T22:45:30.535Z,30.13
2019-02-05T22:47:59.404Z,26.23
2019-02-05T22:50:30.975Z,31.57
2019-02-05T22:53:00.150Z,31.87
2019-02-05T22:55:29.105Z,30.73
2019-02-05T22:57:58.463Z,29.70
2019-02-05T23:00:49.783Z,29.30
2019-02-05T23:03:21.638Z,27.17
2019-02-05T23:06:10.348Z,33.77
2019-02-05T23:08:39.206Z,30.03
2019-02-05T23:11:43.131Z,30.07
2019-02-05T23:14:12.008Z,30.20
2019-02-05T23:16:40.857Z,33.67
2019-02-05T23:19:09.819Z,30.70
2019-02-05T23:21:39.103Z,30.77
2019-02-05T23:24:07.926Z,34.67
2019-02-05T23:26:36.835Z,28.27
2019-02-05T23:29:05.691Z,33.47
2019-02-05T23:31:34.990Z,31.23
2019-02-05T23:34:03.826Z,33.63
2019-02-05T23:36:32.660Z,29.33
2019-02-05T23:39:01.536Z,31.27
2019-02-05T23:41:30.370Z,33.47
2019-02-05T23:43:59.242Z,28.20
2019-02-05T23:46:28.125Z,29.57
2019-02-05T23:48:56.954Z,29.43
2019-02-05T23:51:25.946Z,35.53
2019-02-05T23:53:55.054Z,30.20
2019-02-05T23:56:25.673Z,33.70
2019-02-05T23:58:54.445Z,32.80
